createdAt,value
2019-01-02T00:06:29.992Z,43.40
2019-01-02T00:15:31.271Z,42.79
2019-01-02T00:18:33.007Z,43.25
2019-01-02T00:24:44.652Z,42.67
2019-01-02T00:28:18.790Z,42.17
2019-01-02T00:33:59.741Z,42.18
2019-01-02T00:37:14.462Z,42.33
2019-01-02T00:43:03.746Z,42.00
2019-01-02T00:45:53.861Z,42.12
2019-01-02T00:48:42.783Z,41.95
2019-01-02T00:51:18.153Z,41.85
2019-01-02T00:54:02.346Z,41.99
2019-01-02T01:03:16.438Z,42.02
2019-01-02T01:06:09.974Z,42.50
2019-01-02T01:09:48.191Z,42.80
2019-01-02T01:12:40.823Z,42.78
2019-01-02T01:15:46.018Z,42.63
2019-01-02T01:18:48.984Z,41.97
2019-01-02T01:22:09.084Z,42.08
2019-01-02T01:27:43.334Z,42.03
2019-01-02T01:30:27.564Z,41.70
2019-01-02T01:33:35.692Z,41.95
2019-01-02T01:36:47.976Z,42.21
2019-01-02T01:39:42.204Z,41.56
2019-01-02T01:52:29.510Z,42.12
2019-01-02T01:55:34.635Z,41.86
2019-01-02T02:08:06.004Z,42.22
2019-01-02T02:11:31.880Z,42.27
2019-01-02T02:23:52.524Z,43.03
2019-01-02T02:26:42.626Z,42.81
2019-01-02T02:29:27.261Z,43.39
2019-01-02T02:35:11.696Z,43.50
2019-01-02T02:41:02.343Z,43.84
2019-01-02T02:43:37.812Z,43.81
2019-01-02T02:46:43.997Z,43.67
2019-01-02T02:53:38.332Z,42.79
2019-01-02T02:59:41.095Z,42.78
2019-01-02T03:02:42.530Z,43.15
2019-01-02T03:05:52.729Z,43.07
2019-01-02T03:09:05.119Z,42.98
2019-01-02T03:12:40.784Z,43.68
2019-01-02T03:21:10.610Z,43.33
2019-01-02T03:24:17.469Z,43.53
2019-01-02T03:30:35.337Z,43.67
2019-01-02T03:33:40.596Z,43.78
2019-01-02T03:36:20.015Z,43.47
2019-01-02T03:38:56.705Z,43.22
2019-01-02T03:42:32.390Z,42.76
2019-01-02T03:45:28.856Z,42.81
2019-01-02T03:51:35.245Z,42.74
2019-01-02T03:58:04.108Z,43.05
2019-01-02T04:00:47.921Z,43.04
2019-01-02T04:03:40.664Z,42.88
2019-01-02T04:15:52.357Z,43.53
2019-01-02T04:18:51.367Z,43.50
2019-01-02T04:24:29.610Z,43.66
2019-01-02T04:30:40.959Z,43.54
2019-01-02T04:36:18.772Z,43.04
2019-01-02T04:42:24.657Z,43.31
2019-01-02T04:45:27.370Z,43.12
2019-01-02T04:48:39.572Z,43.54
2019-01-02T04:52:00.051Z,43.42
2019-01-02T05:01:05.291Z,44.04
2019-01-02T05:04:09.938Z,44.04
2019-01-02T05:13:22.208Z,43.37
2019-01-02T05:19:31.612Z,44.00
2019-01-02T05:22:40.058Z,44.16
2019-01-02T05:25:56.571Z,44.37
2019-01-02T05:29:10.257Z,44.32
2019-01-02T05:41:40.231Z,44.74
2019-01-02T05:44:51.611Z,44.49
2019-01-02T05:50:48.702Z,45.48
2019-01-02T05:57:46.291Z,45.58
2019-01-02T06:00:21.655Z,45.83
2019-01-02T06:03:23.336Z,45.83
2019-01-02T06:06:37.097Z,45.29
2019-01-02T06:09:19.865Z,45.40
2019-01-02T06:18:36.012Z,45.34
2019-01-02T06:21:57.040Z,45.21
2019-01-02T06:24:40.532Z,45.01
2019-01-02T06:27:44.807Z,44.68
2019-01-02T06:45:49.570Z,44.39
2019-01-02T06:48:38.659Z,44.71
2019-01-02T06:51:09.825Z,44.89
2019-01-02T06:53:40.967Z,45.05
2019-01-02T06:56:32.023Z,44.89
2019-01-02T06:59:11.382Z,44.81
2019-01-02T07:04:34.116Z,45.10
2019-01-02T07:07:18.444Z,45.51
2019-01-02T07:09:57.845Z,45.46
2019-01-02T07:15:31.650Z,45.89
2019-01-02T07:18:02.738Z,46.12
2019-01-02T07:20:34.747Z,46.29
2019-01-02T07:23:05.940Z,46.28
2019-01-02T07:25:38.064Z,45.71
2019-01-02T07:28:28.455Z,45.71
2019-01-02T07:31:18.494Z,46.07
2019-01-02T07:34:28.415Z,46.28
2019-01-02T07:37:10.560Z,46.00
2019-01-02T07:40:19.541Z,46.00
2019-01-02T07:43:30.697Z,46.17
2019-01-02T07:46:39.686Z,45.92
2019-01-02T07:49:50.902Z,45.84
2019-01-02T07:53:11.766Z,45.15
2019-01-02T07:56:17.281Z,44.78
2019-01-02T07:59:27.236Z,44.26
2019-01-02T08:02:49.199Z,44.20
2019-01-02T08:05:33.815Z,43.68
2019-01-02T08:08:42.876Z,43.58
2019-01-02T08:11:52.118Z,43.65
2019-01-02T08:15:03.226Z,43.07
2019-01-02T08:18:00.415Z,42.95
2019-01-02T08:21:09.495Z,42.90
2019-01-02T08:24:04.130Z,42.88
2019-01-02T08:27:19.680Z,43.04
2019-01-02T08:34:02.239Z,43.07
2019-01-02T08:37:11.422Z,43.13
2019-01-02T08:40:21.267Z,43.12
2019-01-02T08:43:30.412Z,43.05
2019-01-02T08:46:39.474Z,42.75
2019-01-02T08:49:48.624Z,42.72
2019-01-02T08:52:58.670Z,42.28
2019-01-02T08:55:53.081Z,41.63
2019-01-02T08:59:02.167Z,40.87
2019-01-02T09:02:12.504Z,40.74
2019-01-02T09:05:22.512Z,40.46
2019-01-02T09:08:44.342Z,40.71
2019-01-02T09:11:58.403Z,40.28
2019-01-02T09:14:54.872Z,40.23
2019-01-02T09:21:12.335Z,40.06
2019-01-02T09:24:21.694Z,40.29
2019-01-02T09:27:30.729Z,39.79
2019-01-02T09:30:39.747Z,40.25
2019-01-02T09:33:53.227Z,39.74
2019-01-02T09:37:02.284Z,39.65
2019-01-02T09:40:12.275Z,39.66
2019-01-02T09:43:24.702Z,40.19
2019-01-02T09:46:37.852Z,39.51
2019-01-02T09:49:49.069Z,39.11
2019-01-02T09:52:47.702Z,39.55
2019-01-02T09:55:57.998Z,39.73
2019-01-02T10:02:40.230Z,39.50
2019-01-02T10:16:36.820Z,40.45
2019-01-02T10:26:21.277Z,40.72
2019-01-02T10:33:01.108Z,40.84
2019-01-02T10:43:23.736Z,42.55
2019-01-02T10:50:26.762Z,42.58
2019-01-02T11:00:14.743Z,41.65
2019-01-02T11:06:54.828Z,40.81
2019-01-02T11:09:51.671Z,37.67
2019-01-02T11:13:07.783Z,37.67
2019-01-02T11:33:29.055Z,35.74
2019-01-02T11:36:58.207Z,35.23
2019-01-02T11:40:34.949Z,35.18
2019-01-02T11:47:18.867Z,35.58
2019-01-02T12:05:05.651Z,33.92
2019-01-02T12:10:36.064Z,31.82
2019-01-02T12:17:25.762Z,32.25
2019-01-02T12:19:56.783Z,32.22
2019-01-02T12:22:41.649Z,31.66
2019-01-02T12:25:56.677Z,31.68
2019-01-02T12:32:22.273Z,30.83
2019-01-02T12:38:34.927Z,29.84
2019-01-02T12:41:48.439Z,30.05
2019-01-02T12:48:02.779Z,29.59
2019-01-02T12:57:26.877Z,29.06
2019-01-02T13:00:35.880Z,28.95
2019-01-02T13:03:51.366Z,28.44
2019-01-02T13:17:46.197Z,26.45
2019-01-02T13:41:10.621Z,27.11
2019-01-02T13:51:32.418Z,25.86
2019-01-02T13:58:00.277Z,26.15
2019-01-02T14:04:49.735Z,26.25
2019-01-02T14:11:11.495Z,25.90
2019-01-02T14:13:40.513Z,25.87
2019-01-02T14:16:46.108Z,26.29
2019-01-02T14:19:50.461Z,26.88
2019-01-02T14:23:31.485Z,27.01
2019-01-02T14:26:17.528Z,27.19
2019-01-02T14:32:46.904Z,26.97
2019-01-02T14:36:23.491Z,27.43
2019-01-02T14:39:16.300Z,27.44
2019-01-02T14:42:27.151Z,27.95
2019-01-02T14:45:02.051Z,27.25
2019-01-02T14:51:13.921Z,26.77
2019-01-02T15:07:33.891Z,26.71
2019-01-02T15:17:42.036Z,27.99
2019-01-02T15:20:36.680Z,28.06
2019-01-02T15:23:23.181Z,28.29
2019-01-02T15:32:57.618Z,28.27
2019-01-02T15:36:15.808Z,28.27
2019-01-02T15:39:27.618Z,28.46
2019-01-02T15:42:16.403Z,28.25
2019-01-02T15:51:33.824Z,28.67
2019-01-02T15:54:08.343Z,29.11
2019-01-02T15:57:00.101Z,29.11
2019-01-02T15:59:31.316Z,29.62
2019-01-02T16:09:01.809Z,30.15
2019-01-02T16:11:52.771Z,30.67
2019-01-02T16:17:28.231Z,30.24
2019-01-02T16:20:19.816Z,30.20
2019-01-02T16:23:22.734Z,29.92
2019-01-02T16:29:35.941Z,30.11
2019-01-02T16:32:39.032Z,30.29
2019-01-02T16:35:13.381Z,30.19
2019-01-02T16:38:03.529Z,30.03
2019-01-02T16:40:34.853Z,29.58
2019-01-02T16:43:06.105Z,29.99
2019-01-02T16:46:09.542Z,29.86
2019-01-02T16:51:35.232Z,30.12
2019-01-02T16:54:19.569Z,30.10
2019-01-02T16:59:32.038Z,29.94
2019-01-02T17:05:09.728Z,29.95
2019-01-02T17:08:20.879Z,29.94
2019-01-02T17:14:20.202Z,30.02
2019-01-02T17:17:11.156Z,30.16
2019-01-02T17:19:45.390Z,29.98
2019-01-02T17:22:36.513Z,29.94
2019-01-02T17:25:09.715Z,30.09
2019-01-02T17:27:53.603Z,30.03
2019-01-02T17:30:25.753Z,29.91
2019-01-02T17:32:57.791Z,30.01
2019-01-02T17:40:10.598Z,30.27
2019-01-02T17:42:33.819Z,31.00
2019-01-02T17:51:27.669Z,30.39
2019-01-02T17:54:04.442Z,31.00
2019-01-02T17:56:36.404Z,31.36
2019-01-02T17:59:15.094Z,31.23
2019-01-02T18:01:47.467Z,31.35
2019-01-02T18:05:26.393Z,31.59
2019-01-02T18:11:22.360Z,31.26
2019-01-02T18:14:38.681Z,31.28
2019-01-02T18:17:21.387Z,31.30
2019-01-02T18:20:12.407Z,31.49
2019-01-02T18:26:30.491Z,31.58
2019-01-02T18:29:21.592Z,31.76
2019-01-02T18:32:18.670Z,31.56
2019-01-02T18:34:49.849Z,31.43
2019-01-02T18:40:51.009Z,31.92
2019-01-02T18:46:52.116Z,32.09
2019-01-02T18:49:24.281Z,32.08
2019-01-02T18:52:14.447Z,32.09
2019-01-02T18:55:05.526Z,31.96
2019-01-02T18:57:56.615Z,31.97
2019-01-02T19:00:28.752Z,32.09
2019-01-02T19:03:19.794Z,32.23
2019-01-02T19:05:52.494Z,32.31
2019-01-02T19:11:26.073Z,32.73
2019-01-02T19:14:16.264Z,32.81
2019-01-02T19:17:06.486Z,32.68
2019-01-02T19:20:23.061Z,32.52
2019-01-02T19:22:55.438Z,32.98
2019-01-02T19:28:36.396Z,33.15
2019-01-02T19:31:26.697Z,33.15
2019-01-02T19:40:55.360Z,33.95
2019-01-02T19:44:17.001Z,33.82
2019-01-02T19:46:19.916Z,33.73
2019-01-02T19:48:52.088Z,33.41
2019-01-02T19:51:26.817Z,33.36
2019-01-02T19:54:38.149Z,33.39
2019-01-02T19:57:12.160Z,33.28
2019-01-02T20:00:02.399Z,33.01
2019-01-02T20:02:35.789Z,32.94
2019-01-02T20:05:26.098Z,32.77
2019-01-02T20:07:58.598Z,32.61
2019-01-02T20:11:09.960Z,32.41
2019-01-02T20:13:42.996Z,32.33
2019-01-02T20:16:34.813Z,32.50
2019-01-02T20:22:08.446Z,32.38
2019-01-02T20:24:39.722Z,32.47
2019-01-02T20:30:36.674Z,32.35
2019-01-02T20:33:38.471Z,32.57
2019-01-02T20:36:21.892Z,32.29
2019-01-02T20:39:23.587Z,32.54
2019-01-02T20:41:54.841Z,32.58
2019-01-02T20:44:27.703Z,32.56
2019-01-02T20:50:06.688Z,32.15
2019-01-02T20:55:42.023Z,31.96
2019-01-02T20:58:16.361Z,32.17
2019-01-02T21:01:47.772Z,32.15
2019-01-02T21:04:33.157Z,32.05
2019-01-02T21:07:23.548Z,32.46
2019-01-02T21:13:16.751Z,32.18
2019-01-02T21:22:20.211Z,32.52
2019-01-02T21:27:44.197Z,32.20
2019-01-02T21:30:37.263Z,32.73
2019-01-02T21:33:12.874Z,32.73
2019-01-02T21:35:44.993Z,32.76
2019-01-02T21:38:54.095Z,32.76
2019-01-02T21:41:26.205Z,32.61
2019-01-02T21:43:58.373Z,32.71
2019-01-02T21:46:49.411Z,32.66
2019-01-02T21:50:02.417Z,32.75
2019-01-02T21:52:55.347Z,32.75
2019-01-02T21:59:10.390Z,32.84
2019-01-02T22:01:40.452Z,33.00
2019-01-02T22:04:30.627Z,33.04
2019-01-02T22:09:56.879Z,33.39
2019-01-02T22:12:28.190Z,33.39
2019-01-02T22:15:00.623Z,33.40
2019-01-02T22:17:52.086Z,33.58
2019-01-02T22:20:23.470Z,33.37
2019-01-02T22:23:09.883Z,32.98
2019-01-02T22:25:50.721Z,32.68
2019-01-02T22:31:54.978Z,33.26
2019-01-02T22:34:27.247Z,33.96
2019-01-02T22:36:59.332Z,34.22
2019-01-02T22:39:50.377Z,34.52
2019-01-02T22:42:25.363Z,35.06
2019-01-02T22:48:19.307Z,35.28
2019-01-02T22:51:10.415Z,35.62
2019-01-02T22:54:09.952Z,35.92
2019-01-02T22:56:59.468Z,36.05
2019-01-02T22:59:49.823Z,36.31
2019-01-02T23:03:01.143Z,36.31
2019-01-02T23:06:16.474Z,36.25
2019-01-02T23:09:18.193Z,36.31
2019-01-02T23:15:39.843Z,36.62
2019-01-02T23:19:41.432Z,36.62
2019-01-02T23:22:24.106Z,36.46
2019-01-02T23:25:33.782Z,36.59
2019-01-02T23:28:50.101Z,36.75
2019-01-02T23:38:39.332Z,36.26
2019-01-02T23:45:02.379Z,36.06
2019-01-02T23:48:13.262Z,35.90
2019-01-02T23:51:27.731Z,36.12
2019-01-02T23:58:20.678Z,36.01
